createdAt,value
2022-11-17T00:01:52.123Z,2.07
2022-11-17T00:04:18.925Z,2.83
2022-11-17T00:06:45.816Z,2.27
2022-11-17T00:09:17.783Z,1.63
2022-11-17T00:12:03.992Z,2.53
2022-11-17T00:14:36.615Z,1.80
2022-11-17T00:17:06.485Z,2.50
2022-11-17T00:19:51.979Z,2.10
2022-11-17T00:22:18.779Z,2.40
2022-11-17T00:24:45.550Z,2.20
2022-11-17T00:27:12.850Z,1.87
2022-11-17T00:29:39.687Z,2.37
2022-11-17T00:32:30.133Z,1.80
2022-11-17T00:34:57.086Z,2.43
2022-11-17T00:37:24.195Z,1.90
2022-11-17T00:39:51.857Z,2.23
2022-11-17T00:42:20.850Z,2.20
2022-11-17T00:44:47.572Z,1.93
2022-11-17T00:47:14.302Z,2.00
2022-11-17T00:49:41.066Z,1.90
2022-11-17T00:52:07.805Z,2.30
2022-11-17T00:54:34.575Z,2.50
2022-11-17T00:57:01.727Z,2.00
2022-11-17T00:59:28.493Z,2.10
2022-11-17T01:01:55.320Z,2.30
2022-11-17T01:04:22.160Z,2.47
2022-11-17T01:06:49.961Z,2.77
2022-11-17T01:09:22.351Z,2.30
2022-11-17T01:11:51.516Z,2.20
2022-11-17T01:14:25.073Z,2.70
2022-11-17T01:16:52.883Z,2.73
2022-11-17T01:19:20.405Z,2.87
2022-11-17T01:21:47.567Z,2.80
2022-11-17T01:24:16.284Z,2.87
2022-11-17T01:26:45.080Z,2.67
2022-11-17T01:29:14.286Z,2.67
2022-11-17T01:31:43.577Z,2.40
2022-11-17T01:34:11.143Z,2.47
2022-11-17T01:36:59.188Z,2.60
2022-11-17T01:39:27.508Z,3.40
2022-11-17T01:41:55.093Z,2.93
2022-11-17T01:44:59.174Z,2.80
2022-11-17T01:47:47.308Z,2.60
2022-11-17T01:50:27.677Z,3.37
2022-11-17T01:52:59.613Z,3.73
2022-11-17T01:55:32.098Z,2.70
2022-11-17T01:58:07.551Z,2.97
2022-11-17T02:00:34.311Z,3.00
2022-11-17T02:03:01.996Z,4.17
2022-11-17T02:06:04.005Z,4.43
2022-11-17T02:08:32.949Z,5.97
2022-11-17T02:11:02.664Z,5.10
2022-11-17T02:13:29.943Z,6.03
2022-11-17T02:15:56.645Z,6.67
2022-11-17T02:18:23.355Z,7.23
2022-11-17T02:21:08.276Z,7.43
2022-11-17T02:24:12.055Z,8.10
2022-11-17T02:27:16.593Z,10.83
2022-11-17T02:30:17.889Z,9.00
2022-11-17T02:33:06.610Z,9.20
2022-11-17T02:35:50.122Z,7.60
2022-11-17T02:38:28.869Z,6.17
2022-11-17T02:41:02.895Z,6.13
2022-11-17T02:43:58.231Z,6.40
2022-11-17T02:46:28.481Z,6.07
2022-11-17T02:49:00.358Z,7.30
2022-11-17T02:51:28.099Z,6.73
2022-11-17T02:53:57.586Z,7.57
2022-11-17T02:56:24.347Z,6.00
2022-11-17T02:58:56.825Z,6.63
2022-11-17T03:01:48.157Z,5.73
2022-11-17T03:04:27.077Z,5.50
2022-11-17T03:07:07.204Z,5.97
2022-11-17T03:09:47.480Z,5.20
2022-11-17T03:12:39.631Z,5.07
2022-11-17T03:15:25.488Z,4.53
2022-11-17T03:18:22.265Z,4.50
2022-11-17T03:21:17.177Z,4.20
2022-11-17T03:23:52.585Z,4.60
2022-11-17T03:26:29.472Z,4.53
2022-11-17T03:28:57.679Z,3.00
2022-11-17T03:31:25.757Z,3.57
2022-11-17T03:33:53.902Z,3.30
2022-11-17T03:36:26.061Z,2.67
2022-11-17T03:39:10.316Z,2.73
2022-11-17T03:41:43.027Z,2.80
2022-11-17T03:44:11.522Z,3.20
2022-11-17T03:46:41.556Z,2.60
2022-11-17T03:49:26.114Z,3.07
2022-11-17T03:51:53.147Z,3.73
2022-11-17T03:54:19.878Z,2.90
2022-11-17T03:56:57.608Z,2.67
2022-11-17T03:59:43.152Z,2.53
2022-11-17T04:02:24.142Z,2.67
2022-11-17T04:05:06.143Z,2.03
2022-11-17T04:07:41.545Z,1.50
2022-11-17T04:10:20.569Z,1.23
2022-11-17T04:13:07.515Z,1.20
2022-11-17T04:15:53.483Z,0.67
2022-11-17T04:18:21.240Z,1.00
2022-11-17T04:20:56.232Z,0.90
2022-11-17T04:23:24.577Z,0.93
2022-11-17T04:26:12.112Z,0.90
2022-11-17T04:28:42.837Z,0.70
2022-11-17T04:31:18.853Z,0.90
2022-11-17T04:33:47.739Z,0.97
2022-11-17T04:36:17.534Z,1.03
2022-11-17T04:38:46.346Z,1.10
2022-11-17T04:41:33.434Z,1.10
2022-11-17T04:44:01.088Z,1.30
2022-11-17T04:46:29.444Z,1.40
2022-11-17T04:48:57.514Z,1.20
2022-11-17T04:51:25.192Z,1.13
2022-11-17T04:53:52.475Z,1.40
2022-11-17T04:56:20.526Z,1.37
2022-11-17T04:58:48.290Z,1.27
2022-11-17T05:01:17.410Z,1.00
2022-11-17T05:03:55.688Z,1.20
2022-11-17T05:06:33.829Z,1.43
2022-11-17T05:09:03.723Z,1.30
2022-11-17T05:11:49.781Z,1.17
2022-11-17T05:14:18.656Z,1.37
2022-11-17T05:17:09.582Z,1.27
2022-11-17T05:19:45.539Z,1.40
2022-11-17T05:22:40.433Z,1.37
2022-11-17T05:25:07.845Z,1.57
2022-11-17T05:27:34.638Z,1.40
2022-11-17T05:30:02.410Z,2.23
2022-11-17T05:32:29.144Z,1.70
2022-11-17T05:34:55.889Z,1.53
2022-11-17T05:37:22.630Z,1.70
2022-11-17T05:39:49.349Z,2.03
2022-11-17T05:42:16.036Z,1.90
2022-11-17T05:44:42.806Z,2.00
2022-11-17T05:47:09.709Z,1.87
2022-11-17T05:49:36.372Z,1.87
2022-11-17T05:52:03.053Z,2.87
2022-11-17T05:54:29.831Z,3.23
2022-11-17T05:57:03.013Z,3.47
2022-11-17T05:59:43.880Z,3.37
2022-11-17T06:02:16.564Z,3.60
2022-11-17T06:04:44.279Z,3.67
2022-11-17T06:07:11.355Z,4.00
2022-11-17T06:09:41.892Z,3.53
2022-11-17T06:12:09.078Z,3.93
2022-11-17T06:14:37.599Z,4.17
2022-11-17T06:17:09.427Z,5.23
2022-11-17T06:19:43.040Z,5.00
2022-11-17T06:22:13.013Z,5.50
2022-11-17T06:24:43.102Z,4.97
2022-11-17T06:27:11.680Z,4.60
2022-11-17T06:29:43.979Z,5.20
2022-11-17T06:32:15.905Z,4.70
2022-11-17T06:34:49.186Z,5.13
2022-11-17T06:37:18.890Z,5.03
2022-11-17T06:39:45.637Z,4.73
2022-11-17T06:42:12.587Z,5.33
2022-11-17T06:44:39.294Z,5.50
2022-11-17T06:47:06.256Z,5.57
2022-11-17T06:49:33.042Z,4.87
2022-11-17T06:51:59.743Z,5.37
2022-11-17T06:54:26.569Z,5.30
2022-11-17T06:56:53.472Z,4.73
2022-11-17T06:59:20.250Z,4.47
2022-11-17T07:01:46.999Z,5.00
2022-11-17T07:04:13.852Z,5.40
2022-11-17T07:06:40.670Z,4.57
2022-11-17T07:09:07.712Z,4.50
2022-11-17T07:11:36.835Z,4.43
2022-11-17T07:14:03.912Z,4.10
2022-11-17T07:16:32.539Z,3.90
2022-11-17T07:18:59.812Z,4.10
2022-11-17T07:21:26.855Z,4.60
2022-11-17T07:23:54.064Z,4.00
2022-11-17T07:26:20.953Z,4.17
2022-11-17T07:28:47.737Z,3.70
2022-11-17T07:31:14.498Z,4.60
2022-11-17T07:33:41.248Z,4.03
2022-11-17T07:36:10.618Z,3.90
2022-11-17T07:38:39.813Z,3.77
2022-11-17T07:41:08.895Z,3.77
2022-11-17T07:43:36.700Z,5.03
2022-11-17T07:46:05.595Z,5.13
2022-11-17T07:48:32.916Z,4.63
2022-11-17T07:51:01.255Z,5.40
2022-11-17T07:53:28.846Z,4.90
2022-11-17T07:55:56.059Z,4.37
2022-11-17T07:58:25.569Z,5.37
2022-11-17T08:00:52.582Z,5.47
2022-11-17T08:03:19.535Z,6.10
2022-11-17T08:05:46.378Z,5.63
2022-11-17T08:08:13.703Z,6.87
2022-11-17T08:10:40.817Z,6.67
2022-11-17T08:13:07.779Z,6.27
2022-11-17T08:15:35.056Z,6.17
2022-11-17T08:18:02.539Z,7.03
2022-11-17T08:20:30.007Z,6.00
2022-11-17T08:22:56.928Z,7.10
2022-11-17T08:25:25.810Z,6.00
2022-11-17T08:27:59.276Z,7.30
2022-11-17T08:30:26.352Z,6.83
2022-11-17T08:32:54.667Z,6.80
2022-11-17T08:35:23.786Z,7.13
2022-11-17T08:37:50.664Z,6.37
2022-11-17T08:40:20.548Z,6.13
2022-11-17T08:42:47.609Z,6.70
2022-11-17T08:45:14.620Z,5.77
2022-11-17T08:47:41.467Z,4.67
2022-11-17T08:50:08.925Z,5.83
2022-11-17T08:52:35.744Z,4.93
2022-11-17T08:55:02.787Z,5.67
2022-11-17T08:57:30.546Z,5.03
2022-11-17T08:59:57.484Z,4.20
2022-11-17T09:02:24.675Z,3.80
2022-11-17T09:04:51.569Z,4.37
2022-11-17T09:07:18.377Z,4.73
2022-11-17T09:09:46.410Z,4.73
2022-11-17T09:12:13.225Z,3.97
2022-11-17T09:14:40.055Z,4.17
2022-11-17T09:17:06.977Z,4.10
2022-11-17T09:19:33.722Z,4.60
2022-11-17T09:22:00.413Z,4.53
2022-11-17T09:24:27.285Z,4.53
2022-11-17T09:26:57.638Z,4.60
2022-11-17T09:29:25.055Z,3.63
2022-11-17T09:31:51.893Z,4.27
2022-11-17T09:34:19.884Z,3.93
2022-11-17T09:36:49.071Z,4.23
2022-11-17T09:39:16.150Z,4.47
2022-11-17T09:41:46.212Z,4.30
2022-11-17T09:44:31.157Z,3.90
2022-11-17T09:47:25.821Z,3.57
2022-11-17T09:50:01.499Z,3.53
2022-11-17T09:52:56.163Z,3.67
2022-11-17T09:55:35.757Z,3.63
2022-11-17T09:58:33.112Z,3.40
2022-11-17T10:01:01.323Z,2.97
2022-11-17T10:03:31.035Z,3.63
2022-11-17T10:06:00.763Z,3.20
2022-11-17T10:08:58.318Z,3.47
2022-11-17T10:11:32.787Z,3.60
2022-11-17T10:14:04.237Z,3.00
2022-11-17T10:16:31.404Z,2.90
2022-11-17T10:18:58.451Z,3.20
2022-11-17T10:21:30.067Z,2.90
2022-11-17T10:23:59.250Z,3.33
2022-11-17T10:26:26.442Z,2.90
2022-11-17T10:29:09.005Z,2.60
2022-11-17T10:31:44.988Z,2.77
2022-11-17T10:34:32.944Z,2.87
2022-11-17T10:37:25.392Z,3.00
2022-11-17T10:40:09.848Z,2.80
2022-11-17T10:42:36.939Z,2.70
2022-11-17T10:45:04.045Z,2.50
2022-11-17T10:47:39.247Z,2.60
2022-11-17T10:50:11.374Z,3.07
2022-11-17T10:52:38.296Z,2.60
2022-11-17T10:55:18.600Z,2.77
2022-11-17T10:57:50.013Z,2.47
2022-11-17T11:00:32.437Z,2.67
2022-11-17T11:03:14.233Z,3.17
2022-11-17T11:06:04.059Z,2.70
2022-11-17T11:08:59.511Z,2.47
2022-11-17T11:11:53.736Z,2.80
2022-11-17T11:14:32.464Z,2.60
2022-11-17T11:16:59.741Z,3.00
2022-11-17T11:19:26.607Z,3.00
2022-11-17T11:22:05.306Z,2.30
2022-11-17T11:24:45.090Z,2.33
2022-11-17T11:27:30.689Z,3.33
2022-11-17T11:30:15.476Z,3.53
2022-11-17T11:33:23.878Z,3.93
2022-11-17T11:36:02.851Z,2.93
2022-11-17T11:38:41.885Z,3.43
2022-11-17T11:41:29.570Z,3.50
2022-11-17T11:44:02.212Z,3.87
2022-11-17T11:46:50.175Z,3.43
2022-11-17T11:49:26.536Z,3.83
2022-11-17T11:51:53.991Z,3.60
2022-11-17T11:55:01.198Z,3.70
2022-11-17T11:57:48.016Z,3.87
2022-11-17T12:00:17.009Z,4.20
2022-11-17T12:03:12.612Z,4.40
2022-11-17T12:06:22.296Z,4.70
2022-11-17T12:09:47.715Z,5.10
2022-11-17T12:12:18.518Z,5.17
2022-11-17T12:15:06.682Z,4.93
2022-11-17T12:17:33.973Z,3.97
2022-11-17T12:20:10.488Z,3.97
2022-11-17T12:22:37.688Z,4.10
2022-11-17T12:25:15.770Z,3.73
2022-11-17T12:27:43.777Z,3.20
2022-11-17T12:30:37.607Z,3.80
2022-11-17T12:33:08.949Z,3.17
2022-11-17T12:35:37.586Z,3.27
2022-11-17T12:38:16.626Z,3.30
2022-11-17T12:40:47.474Z,3.10
2022-11-17T12:43:17.058Z,3.37
2022-11-17T12:45:55.907Z,3.33
2022-11-17T12:48:34.078Z,3.47
2022-11-17T12:51:23.372Z,4.33
2022-11-17T12:54:22.203Z,3.87
2022-11-17T12:57:07.378Z,3.37
2022-11-17T12:59:42.847Z,3.43
2022-11-17T13:02:28.982Z,3.90
2022-11-17T13:05:05.139Z,3.33
2022-11-17T13:07:32.041Z,3.70
2022-11-17T13:10:00.243Z,3.40
2022-11-17T13:12:29.377Z,3.23
2022-11-17T13:15:02.680Z,3.67
2022-11-17T13:17:38.906Z,3.77
2022-11-17T13:20:21.153Z,3.23
2022-11-17T13:23:06.552Z,3.70
2022-11-17T13:25:34.220Z,3.23
2022-11-17T13:28:04.749Z,3.10
2022-11-17T13:30:33.227Z,2.77
2022-11-17T13:33:03.049Z,3.23
2022-11-17T13:35:32.708Z,2.73
2022-11-17T13:38:19.991Z,2.80
2022-11-17T13:40:49.289Z,2.20
2022-11-17T13:43:22.143Z,2.83
2022-11-17T13:45:50.601Z,3.37
2022-11-17T13:48:38.003Z,2.70
2022-11-17T13:51:24.939Z,2.97
2022-11-17T13:53:57.826Z,2.57
2022-11-17T13:56:30.526Z,3.60
2022-11-17T13:58:59.031Z,3.33
2022-11-17T14:01:29.255Z,3.13
2022-11-17T14:04:19.517Z,3.27
2022-11-17T14:07:01.512Z,2.83
2022-11-17T14:09:34.546Z,2.90
2022-11-17T14:12:08.296Z,2.50
2022-11-17T14:14:42.277Z,3.20
2022-11-17T14:17:28.048Z,2.37
2022-11-17T14:19:54.833Z,2.90
2022-11-17T14:22:31.299Z,2.50
2022-11-17T14:24:58.923Z,2.70
2022-11-17T14:27:32.007Z,2.90
2022-11-17T14:29:58.792Z,2.60
2022-11-17T14:32:25.606Z,1.90
2022-11-17T14:34:52.478Z,2.60
2022-11-17T14:37:19.359Z,2.20
2022-11-17T14:39:46.119Z,2.20
2022-11-17T14:42:12.930Z,2.33
2022-11-17T14:44:39.672Z,2.30
2022-11-17T14:47:06.655Z,2.03
2022-11-17T14:49:33.427Z,1.90
2022-11-17T14:52:00.459Z,2.03
2022-11-17T14:54:27.232Z,1.83
2022-11-17T14:56:54.032Z,1.80
2022-11-17T14:59:20.744Z,1.90
2022-11-17T15:01:47.553Z,2.10
2022-11-17T15:04:48.973Z,2.07
2022-11-17T15:07:05.082Z,1.90
2022-11-17T15:09:32.081Z,2.03
2022-11-17T15:11:58.907Z,2.20
2022-11-17T15:14:25.880Z,2.43
2022-11-17T15:16:52.599Z,1.60
2022-11-17T15:19:19.309Z,2.00
2022-11-17T15:21:46.281Z,2.00
2022-11-17T15:24:13.856Z,1.90
2022-11-17T15:26:40.855Z,1.90
2022-11-17T15:29:07.667Z,2.10
2022-11-17T15:31:34.787Z,1.80
2022-11-17T15:34:01.589Z,1.93
2022-11-17T15:36:28.418Z,1.80
2022-11-17T15:38:56.738Z,1.60
2022-11-17T15:41:25.476Z,1.70
2022-11-17T15:43:55.328Z,1.90
2022-11-17T15:46:22.321Z,1.50
2022-11-17T15:48:52.410Z,1.90
2022-11-17T15:51:21.443Z,1.73
2022-11-17T15:53:49.725Z,1.40
2022-11-17T15:56:21.471Z,1.27
2022-11-17T15:58:53.551Z,1.60
2022-11-17T16:01:28.978Z,1.60
2022-11-17T16:04:01.556Z,1.33
2022-11-17T16:06:31.108Z,1.70
2022-11-17T16:08:58.648Z,1.60
2022-11-17T16:11:27.039Z,1.60
2022-11-17T16:13:55.379Z,1.60
2022-11-17T16:16:23.637Z,1.23
2022-11-17T16:18:50.691Z,1.40
2022-11-17T16:21:18.191Z,1.40
2022-11-17T16:23:46.989Z,1.70
2022-11-17T16:26:16.068Z,1.30
2022-11-17T16:28:42.924Z,1.20
2022-11-17T16:31:21.461Z,1.53
2022-11-17T16:33:52.953Z,1.87
2022-11-17T16:36:21.561Z,1.50
2022-11-17T16:39:01.298Z,1.50
2022-11-17T16:41:33.839Z,1.40
2022-11-17T16:44:01.285Z,1.80
2022-11-17T16:46:30.544Z,2.13
2022-11-17T16:49:01.837Z,1.47
2022-11-17T16:51:28.926Z,1.70
2022-11-17T16:53:58.402Z,1.63
2022-11-17T16:56:25.320Z,1.70
2022-11-17T16:58:52.224Z,1.97
2022-11-17T17:01:27.156Z,1.37
2022-11-17T17:04:02.578Z,1.67
2022-11-17T17:06:29.460Z,1.57
2022-11-17T17:09:05.193Z,2.43
2022-11-17T17:11:36.926Z,1.50
2022-11-17T17:14:06.639Z,1.40
2022-11-17T17:16:35.841Z,1.73
2022-11-17T17:19:04.947Z,1.70
2022-11-17T17:21:32.885Z,1.80
2022-11-17T17:24:00.248Z,1.70
2022-11-17T17:26:29.505Z,2.03
2022-11-17T17:28:58.131Z,1.70
2022-11-17T17:31:26.914Z,1.70
2022-11-17T17:33:55.121Z,2.10
2022-11-17T17:36:24.356Z,2.00
2022-11-17T17:38:56.375Z,1.60
2022-11-17T17:41:29.364Z,1.50
2022-11-17T17:44:01.676Z,1.50
2022-11-17T17:46:29.980Z,1.30
2022-11-17T17:48:57.546Z,2.03
2022-11-17T17:51:26.147Z,1.70
2022-11-17T17:53:55.828Z,1.37
2022-11-17T17:56:23.598Z,1.60
2022-11-17T17:58:51.691Z,1.73
2022-11-17T18:01:25.895Z,1.60
2022-11-17T18:03:54.847Z,1.80
2022-11-17T18:06:22.592Z,1.70
2022-11-17T18:08:49.723Z,1.83
2022-11-17T18:11:20.952Z,1.90
2022-11-17T18:13:52.269Z,1.93
2022-11-17T18:16:30.070Z,1.47
2022-11-17T18:19:04.113Z,1.60
2022-11-17T18:21:32.049Z,1.70
2022-11-17T18:24:01.199Z,1.60
2022-11-17T18:26:33.229Z,1.80
2022-11-17T18:29:06.462Z,1.83
2022-11-17T18:31:36.446Z,2.00
2022-11-17T18:34:08.772Z,1.90
2022-11-17T18:36:36.025Z,2.33
2022-11-17T18:39:03.716Z,2.30
2022-11-17T18:41:32.181Z,2.20
2022-11-17T18:43:58.987Z,1.60
2022-11-17T18:46:29.034Z,1.53
2022-11-17T18:48:56.725Z,1.60
2022-11-17T18:51:26.107Z,1.60
2022-11-17T18:53:54.650Z,1.77
2022-11-17T18:56:26.329Z,1.80
2022-11-17T18:58:54.039Z,1.43
2022-11-17T19:01:23.332Z,2.40
2022-11-17T19:03:54.815Z,1.60
2022-11-17T19:06:24.577Z,1.90
2022-11-17T19:08:52.663Z,2.03
2022-11-17T19:11:20.966Z,1.90
2022-11-17T19:13:47.989Z,1.77
2022-11-17T19:16:23.148Z,1.60
2022-11-17T19:18:52.410Z,2.03
2022-11-17T19:21:22.028Z,2.00
2022-11-17T19:23:51.833Z,1.70
2022-11-17T19:26:27.745Z,2.10
2022-11-17T19:28:58.836Z,2.10
2022-11-17T19:31:26.294Z,1.80
2022-11-17T19:33:55.054Z,2.20
2022-11-17T19:36:33.927Z,1.97
2022-11-17T19:39:02.287Z,2.10
2022-11-17T19:41:38.532Z,1.70
2022-11-17T19:44:07.666Z,2.07
2022-11-17T19:46:36.200Z,2.30
2022-11-17T19:49:04.296Z,1.70
2022-11-17T19:51:33.888Z,2.20
2022-11-17T19:54:07.064Z,1.90
2022-11-17T19:56:35.314Z,2.10
2022-11-17T19:59:02.999Z,2.07
2022-11-17T20:01:31.362Z,2.63
2022-11-17T20:04:02.777Z,1.93
2022-11-17T20:06:34.913Z,1.93
2022-11-17T20:09:05.406Z,1.80
2022-11-17T20:11:32.801Z,2.07
2022-11-17T20:13:59.658Z,2.33
2022-11-17T20:16:27.398Z,2.73
2022-11-17T20:18:56.264Z,3.00
2022-11-17T20:21:23.944Z,2.23
2022-11-17T20:23:51.382Z,2.03
2022-11-17T20:26:20.021Z,2.27
2022-11-17T20:28:48.299Z,2.10
2022-11-17T20:31:19.533Z,2.00
2022-11-17T20:33:47.715Z,2.20
2022-11-17T20:36:17.708Z,2.00
2022-11-17T20:38:44.955Z,2.33
2022-11-17T20:41:11.894Z,2.13
2022-11-17T20:43:38.733Z,2.07
2022-11-17T20:46:05.799Z,2.30
2022-11-17T20:48:35.273Z,1.97
2022-11-17T20:51:08.164Z,2.53
2022-11-17T20:53:35.427Z,2.30
2022-11-17T20:56:04.052Z,2.80
2022-11-17T20:58:31.098Z,1.80
2022-11-17T21:00:58.513Z,2.40
2022-11-17T21:03:27.070Z,2.17
2022-11-17T21:05:58.721Z,2.10
2022-11-17T21:08:30.771Z,2.60
2022-11-17T21:10:59.089Z,2.70
2022-11-17T21:13:27.104Z,2.10
2022-11-17T21:16:14.024Z,2.67
2022-11-17T21:18:47.242Z,2.00
2022-11-17T21:21:15.232Z,2.50
2022-11-17T21:23:46.726Z,2.23
2022-11-17T21:26:19.939Z,2.07
2022-11-17T21:28:47.550Z,2.50
2022-11-17T21:31:19.885Z,2.77
2022-11-17T21:33:47.259Z,2.07
2022-11-17T21:36:16.742Z,3.07
2022-11-17T21:38:47.560Z,2.30
2022-11-17T21:41:16.548Z,2.53
2022-11-17T21:43:46.307Z,2.73
2022-11-17T21:46:15.717Z,2.23
2022-11-17T21:48:42.747Z,2.97
2022-11-17T21:51:25.910Z,2.37
2022-11-17T21:53:55.039Z,2.53
2022-11-17T21:56:25.587Z,2.53
2022-11-17T21:58:56.068Z,2.90
2022-11-17T22:01:23.736Z,2.20
2022-11-17T22:03:50.645Z,2.30
2022-11-17T22:06:20.422Z,2.73
2022-11-17T22:08:47.665Z,2.70
2022-11-17T22:11:38.453Z,2.33
2022-11-17T22:14:15.446Z,2.60
2022-11-17T22:16:48.142Z,3.67
2022-11-17T22:19:16.716Z,2.80
2022-11-17T22:21:44.856Z,2.30
2022-11-17T22:24:12.918Z,2.47
2022-11-17T22:26:41.520Z,2.90
2022-11-17T22:29:12.056Z,3.00
2022-11-17T22:31:38.899Z,2.67
2022-11-17T22:34:05.761Z,2.67
2022-11-17T22:36:34.072Z,2.40
2022-11-17T22:39:00.851Z,2.60
2022-11-17T22:41:27.665Z,2.90
2022-11-17T22:43:56.202Z,2.60
2022-11-17T22:46:26.544Z,3.07
2022-11-17T22:48:55.077Z,2.83
2022-11-17T22:51:40.441Z,2.50
2022-11-17T22:54:08.111Z,2.80
2022-11-17T22:56:35.544Z,2.70
2022-11-17T22:59:03.831Z,3.20
2022-11-17T23:01:30.764Z,2.80
2022-11-17T23:03:57.582Z,2.30
2022-11-17T23:06:24.441Z,2.70
2022-11-17T23:08:51.832Z,2.87
2022-11-17T23:14:08.024Z,2.57
2022-11-17T23:16:35.556Z,3.40
2022-11-17T23:19:02.366Z,2.70
2022-11-17T23:21:29.321Z,2.83
2022-11-17T23:23:56.248Z,2.93
2022-11-17T23:26:23.222Z,3.27
2022-11-17T23:28:50.075Z,2.17
2022-11-17T23:31:17.983Z,2.50
2022-11-17T23:33:46.547Z,2.60
2022-11-17T23:36:18.642Z,2.40
2022-11-17T23:38:46.352Z,2.43
2022-11-17T23:41:15.409Z,3.13
2022-11-17T23:43:42.694Z,1.90
2022-11-17T23:46:15.045Z,1.90
2022-11-17T23:48:43.166Z,2.30
2022-11-17T23:51:15.883Z,2.40
2022-11-17T23:53:43.051Z,2.93
2022-11-17T23:56:10.862Z,2.20
2022-11-17T23:58:38.226Z,1.83
